createdAt,value
2017-11-14T00:02:01.352Z,91.20
2017-11-14T00:04:27.647Z,91.20
2017-11-14T00:06:54.727Z,90.80
2017-11-14T00:09:20.921Z,90.80
2017-11-14T00:11:48.181Z,91.30
2017-11-14T00:14:14.385Z,91.20
2017-11-14T00:16:40.611Z,91.30
2017-11-14T00:19:06.841Z,91.40
2017-11-14T00:21:33.095Z,91.20
2017-11-14T00:23:59.356Z,91.60
2017-11-14T00:26:25.587Z,91.60
2017-11-14T00:28:51.853Z,91.90
2017-11-14T00:31:18.063Z,91.70
2017-11-14T00:33:44.310Z,91.40
2017-11-14T00:36:10.507Z,91.40
2017-11-14T00:38:36.729Z,91.60
2017-11-14T00:41:02.957Z,91.40
2017-11-14T00:43:29.172Z,91.60
2017-11-14T00:45:55.380Z,91.30
2017-11-14T00:48:21.627Z,91.40
2017-11-14T00:50:48.631Z,91.50
2017-11-14T00:53:15.683Z,91.40
2017-11-14T00:55:42.127Z,91.40
2017-11-14T00:58:08.348Z,91.40
2017-11-14T01:00:35.329Z,91.30
2017-11-14T01:03:01.595Z,91.30
2017-11-14T01:05:28.495Z,91.20
2017-11-14T01:07:55.413Z,91.10
2017-11-14T01:10:21.701Z,91.00
2017-11-14T01:12:47.945Z,91.00
2017-11-14T01:15:14.168Z,90.70
2017-11-14T01:17:40.420Z,90.70
2017-11-14T01:20:07.391Z,90.90
2017-11-14T01:22:33.641Z,90.80
2017-11-14T01:24:59.861Z,91.00
2017-11-14T01:27:26.265Z,91.00
2017-11-14T01:29:52.457Z,91.10
2017-11-14T01:32:18.695Z,91.20
2017-11-14T01:34:45.709Z,91.30
2017-11-14T01:37:11.959Z,91.30
2017-11-14T01:39:38.189Z,91.40
2017-11-14T01:42:04.523Z,91.40
2017-11-14T01:44:30.740Z,91.50
2017-11-14T01:46:56.996Z,91.50
2017-11-14T01:49:23.998Z,91.10
2017-11-14T01:51:51.020Z,91.40
2017-11-14T01:54:17.290Z,91.10
2017-11-14T01:56:43.600Z,91.10
2017-11-14T01:59:09.967Z,91.10
2017-11-14T02:01:36.260Z,91.10
2017-11-14T02:04:02.531Z,91.00
2017-11-14T02:06:28.825Z,90.90
2017-11-14T02:08:55.959Z,90.80
2017-11-14T02:11:22.256Z,90.80
2017-11-14T02:13:48.599Z,91.10
2017-11-14T02:16:14.918Z,91.30
2017-11-14T02:18:41.166Z,91.20
2017-11-14T02:21:07.385Z,91.10
2017-11-14T02:23:33.643Z,91.20
2017-11-14T02:26:00.777Z,91.10
2017-11-14T02:28:27.007Z,91.20
2017-11-14T02:30:53.221Z,91.10
2017-11-14T02:33:19.463Z,91.20
2017-11-14T02:35:45.673Z,91.10
2017-11-14T02:38:11.931Z,91.20
2017-11-14T02:40:38.161Z,91.10
2017-11-14T02:43:04.491Z,91.10
2017-11-14T02:45:30.708Z,91.20
2017-11-14T02:47:57.119Z,91.20
2017-11-14T02:50:23.359Z,90.90
2017-11-14T02:52:49.616Z,91.10
2017-11-14T02:55:15.852Z,91.40
2017-11-14T02:57:42.111Z,91.10
2017-11-14T03:00:09.081Z,91.40
2017-11-14T03:02:35.313Z,91.40
2017-11-14T03:05:01.578Z,91.30
2017-11-14T03:07:27.793Z,91.20
2017-11-14T03:09:54.176Z,91.30
2017-11-14T03:12:20.420Z,91.30
2017-11-14T03:14:46.644Z,91.30
2017-11-14T03:17:12.874Z,91.40
2017-11-14T03:19:39.170Z,91.40
2017-11-14T03:22:06.157Z,91.40
2017-11-14T03:24:32.382Z,91.40
2017-11-14T03:26:58.619Z,91.30
2017-11-14T03:29:24.856Z,91.40
2017-11-14T03:31:51.077Z,91.40
2017-11-14T03:34:17.359Z,91.50
2017-11-14T03:36:44.347Z,91.70
2017-11-14T03:39:10.608Z,91.80
2017-11-14T03:41:36.856Z,92.00
2017-11-14T03:44:03.121Z,91.80
2017-11-14T03:46:29.452Z,91.90
2017-11-14T03:48:56.054Z,91.70
2017-11-14T03:51:23.268Z,91.80
2017-11-14T03:53:50.343Z,92.00
2017-11-14T03:56:17.316Z,91.80
2017-11-14T03:58:44.314Z,91.70
2017-11-14T04:01:10.523Z,91.70
2017-11-14T04:03:36.762Z,91.80
2017-11-14T04:06:02.994Z,91.80
2017-11-14T04:08:29.304Z,91.70
2017-11-14T04:10:55.576Z,91.10
2017-11-14T04:13:22.674Z,90.60
2017-11-14T04:15:48.912Z,90.60
2017-11-14T04:18:15.127Z,90.60
2017-11-14T04:20:41.357Z,90.90
2017-11-14T04:23:07.575Z,91.20
2017-11-14T04:25:33.822Z,91.40
2017-11-14T04:28:00.042Z,91.60
2017-11-14T04:30:26.504Z,91.60
2017-11-14T04:32:52.767Z,92.00
2017-11-14T04:35:19.017Z,91.90
2017-11-14T04:37:45.247Z,92.00
2017-11-14T04:40:11.480Z,91.90
2017-11-14T04:42:37.683Z,92.00
2017-11-14T04:45:04.675Z,92.10
2017-11-14T04:47:30.892Z,91.80
2017-11-14T04:49:57.116Z,91.60
2017-11-14T04:52:23.376Z,91.60
2017-11-14T04:54:49.600Z,91.90
2017-11-14T04:57:15.816Z,92.00
2017-11-14T04:59:42.046Z,92.10
2017-11-14T05:02:08.276Z,92.30
2017-11-14T05:04:34.502Z,92.30
2017-11-14T05:07:01.339Z,92.40
2017-11-14T05:09:27.782Z,92.30
2017-11-14T05:11:54.168Z,92.60
2017-11-14T05:14:20.596Z,92.00
2017-11-14T05:16:46.899Z,92.40
2017-11-14T05:19:13.877Z,92.40
2017-11-14T05:21:40.112Z,92.30
2017-11-14T05:24:06.413Z,92.20
2017-11-14T05:26:32.635Z,92.20
2017-11-14T05:28:59.671Z,92.10
2017-11-14T05:31:26.725Z,92.10
2017-11-14T05:33:53.014Z,92.10
2017-11-14T05:36:19.319Z,91.90
2017-11-14T05:38:45.619Z,92.00
2017-11-14T05:41:12.643Z,92.20
2017-11-14T05:43:38.875Z,92.20
2017-11-14T05:46:05.109Z,92.20
2017-11-14T05:48:31.324Z,91.90
2017-11-14T05:50:57.580Z,92.00
2017-11-14T05:53:24.025Z,91.70
2017-11-14T05:55:50.276Z,91.90
2017-11-14T05:58:16.520Z,92.10
2017-11-14T06:00:42.783Z,92.00
2017-11-14T06:03:09.023Z,92.10
2017-11-14T06:05:36.198Z,92.00
2017-11-14T06:08:02.497Z,92.00
2017-11-14T06:10:29.628Z,92.40
2017-11-14T06:12:55.896Z,92.40
2017-11-14T06:15:22.149Z,92.60
2017-11-14T06:17:48.374Z,92.60
2017-11-14T06:20:14.798Z,92.80
2017-11-14T06:22:41.274Z,93.20
2017-11-14T06:25:07.958Z,93.30
2017-11-14T06:27:34.350Z,93.60
2017-11-14T06:30:00.834Z,93.70
2017-11-14T06:32:27.151Z,93.70
2017-11-14T06:34:53.411Z,93.70
2017-11-14T06:37:19.716Z,93.70
2017-11-14T06:39:45.987Z,93.70
2017-11-14T06:42:12.231Z,93.70
2017-11-14T06:44:38.552Z,93.70
2017-11-14T06:47:06.424Z,93.50
2017-11-14T06:49:32.715Z,93.50
2017-11-14T06:51:59.296Z,93.40
2017-11-14T06:54:26.327Z,93.30
2017-11-14T06:56:52.589Z,93.30
2017-11-14T06:59:19.553Z,93.10
2017-11-14T07:01:45.816Z,93.10
2017-11-14T07:04:12.036Z,93.30
2017-11-14T07:06:38.272Z,93.20
2017-11-14T07:09:04.511Z,93.30
2017-11-14T07:11:30.922Z,93.50
2017-11-14T07:13:57.218Z,93.40
2017-11-14T07:16:23.467Z,93.20
2017-11-14T07:18:50.651Z,93.50
2017-11-14T07:21:16.878Z,93.50
2017-11-14T07:23:43.242Z,93.60
2017-11-14T07:26:09.574Z,93.60
2017-11-14T07:28:36.576Z,93.90
2017-11-14T07:31:02.797Z,93.80
2017-11-14T07:33:29.038Z,93.70
2017-11-14T07:35:56.004Z,93.80
2017-11-14T07:38:22.252Z,93.80
2017-11-14T07:40:49.207Z,94.20
2017-11-14T07:43:15.421Z,94.20
2017-11-14T07:45:42.512Z,94.20
2017-11-14T07:48:09.712Z,94.20
2017-11-14T07:50:35.999Z,94.20
2017-11-14T07:53:02.584Z,94.20
2017-11-14T07:55:28.788Z,94.20
2017-11-14T07:57:55.274Z,94.10
2017-11-14T08:00:21.520Z,94.10
2017-11-14T08:02:47.791Z,94.10
2017-11-14T08:05:14.923Z,93.50
2017-11-14T08:07:42.042Z,93.20
2017-11-14T08:10:08.282Z,93.20
2017-11-14T08:12:34.551Z,93.20
2017-11-14T08:15:01.517Z,93.00
2017-11-14T08:17:28.917Z,92.90
2017-11-14T08:19:55.953Z,93.20
2017-11-14T08:22:22.209Z,93.20
2017-11-14T08:24:48.448Z,93.10
2017-11-14T08:27:15.459Z,93.20
2017-11-14T08:29:41.752Z,93.20
2017-11-14T08:32:07.957Z,93.30
2017-11-14T08:34:34.984Z,92.60
2017-11-14T08:37:02.224Z,92.30
2017-11-14T08:39:28.490Z,92.30
2017-11-14T08:41:54.763Z,92.40
2017-11-14T08:44:21.219Z,92.20
2017-11-14T08:46:47.683Z,92.30
2017-11-14T08:49:13.993Z,92.30
2017-11-14T08:51:40.344Z,92.30
2017-11-14T08:54:07.328Z,92.10
2017-11-14T08:56:33.558Z,92.10
2017-11-14T08:58:59.805Z,92.00
2017-11-14T09:01:26.043Z,91.50
2017-11-14T09:03:52.323Z,91.40
2017-11-14T09:06:19.695Z,91.40
2017-11-14T09:08:45.990Z,91.30
2017-11-14T09:11:13.110Z,91.20
2017-11-14T09:13:40.464Z,91.40
2017-11-14T09:16:07.534Z,91.40
2017-11-14T09:18:34.559Z,91.40
2017-11-14T09:21:01.052Z,91.40
2017-11-14T09:23:29.580Z,91.50
2017-11-14T09:25:56.316Z,91.60
2017-11-14T09:28:22.825Z,91.30
2017-11-14T09:30:49.172Z,91.20
2017-11-14T09:33:15.643Z,91.40
2017-11-14T09:35:41.893Z,91.60
2017-11-14T09:38:09.025Z,91.60
2017-11-14T09:40:35.866Z,91.40
2017-11-14T09:43:02.783Z,91.30
2017-11-14T09:45:29.056Z,91.50
2017-11-14T09:47:55.432Z,91.40
2017-11-14T09:50:21.743Z,91.20
2017-11-14T09:52:50.210Z,91.30
2017-11-14T09:55:24.282Z,91.20
2017-11-14T09:57:50.644Z,91.40
2017-11-14T10:00:16.882Z,91.70
2017-11-14T10:02:43.711Z,91.40
2017-11-14T10:05:09.978Z,91.40
2017-11-14T10:07:37.602Z,91.60
2017-11-14T10:10:03.910Z,91.80
2017-11-14T10:12:30.614Z,92.10
2017-11-14T10:14:57.763Z,91.50
2017-11-14T10:17:24.564Z,91.50
2017-11-14T10:19:50.852Z,91.50
2017-11-14T10:22:20.971Z,91.70
2017-11-14T10:24:49.836Z,91.50
2017-11-14T10:27:16.065Z,91.50
2017-11-14T10:29:42.356Z,91.60
2017-11-14T10:32:08.599Z,91.50
2017-11-14T10:34:34.936Z,91.50
2017-11-14T10:37:01.232Z,91.30
2017-11-14T10:39:27.651Z,91.60
2017-11-14T10:41:54.015Z,91.60
2017-11-14T10:44:20.248Z,91.60
2017-11-14T10:46:47.323Z,91.70
2017-11-14T10:49:13.694Z,91.70
2017-11-14T10:51:40.068Z,91.50
2017-11-14T10:54:07.344Z,91.70
2017-11-14T10:56:33.678Z,91.40
2017-11-14T10:59:04.011Z,91.40
2017-11-14T11:01:33.926Z,91.30
2017-11-14T11:04:00.383Z,91.30
2017-11-14T11:06:26.811Z,91.20
2017-11-14T11:08:53.987Z,91.30
2017-11-14T11:11:20.249Z,91.30
2017-11-14T11:13:47.300Z,91.00
2017-11-14T11:16:13.728Z,90.90
2017-11-14T11:18:39.980Z,90.90
2017-11-14T11:21:06.264Z,91.00
2017-11-14T11:23:33.379Z,90.60
2017-11-14T11:25:59.865Z,90.60
2017-11-14T11:28:26.107Z,90.50
2017-11-14T11:30:52.435Z,90.70
2017-11-14T11:33:19.434Z,90.50
2017-11-14T11:35:46.213Z,90.50
2017-11-14T11:38:12.626Z,90.60
2017-11-14T11:40:38.933Z,90.40
2017-11-14T11:43:05.455Z,90.30
2017-11-14T11:45:38.739Z,90.20
2017-11-14T11:48:05.744Z,89.50
2017-11-14T11:50:32.028Z,89.50
2017-11-14T11:52:58.268Z,89.60
2017-11-14T11:55:24.609Z,89.90
2017-11-14T11:57:50.864Z,89.50
2017-11-14T12:00:17.170Z,89.70
2017-11-14T12:02:43.437Z,89.30
2017-11-14T12:05:10.405Z,88.80
2017-11-14T12:07:39.405Z,88.80
2017-11-14T12:10:06.931Z,88.20
2017-11-14T12:12:33.963Z,88.20
2017-11-14T12:15:00.207Z,88.20
2017-11-14T12:17:27.456Z,88.80
2017-11-14T12:19:54.471Z,88.20
2017-11-14T12:22:20.872Z,88.20
2017-11-14T12:24:47.183Z,87.80
2017-11-14T12:27:14.997Z,87.50
2017-11-14T12:29:41.406Z,87.50
2017-11-14T12:32:07.683Z,87.50
2017-11-14T12:34:34.981Z,87.90
2017-11-14T12:37:01.450Z,87.70
2017-11-14T12:39:32.761Z,87.50
2017-11-14T12:41:59.061Z,87.70
2017-11-14T12:44:26.124Z,88.50
2017-11-14T12:46:52.449Z,87.80
2017-11-14T12:49:18.719Z,87.80
2017-11-14T12:51:45.046Z,87.70
2017-11-14T12:54:11.440Z,87.50
2017-11-14T12:56:37.692Z,87.20
2017-11-14T12:59:04.028Z,87.70
2017-11-14T13:01:30.351Z,87.10
2017-11-14T13:03:56.870Z,87.20
2017-11-14T13:06:23.208Z,87.10
2017-11-14T13:08:49.625Z,86.60
2017-11-14T13:11:15.896Z,86.40
2017-11-14T13:13:42.182Z,86.50
2017-11-14T13:16:08.430Z,86.10
2017-11-14T13:18:34.924Z,86.30
2017-11-14T13:21:01.979Z,86.70
2017-11-14T13:23:29.031Z,86.40
2017-11-14T13:25:56.055Z,86.40
2017-11-14T13:28:22.581Z,86.30
2017-11-14T13:30:49.222Z,86.30
2017-11-14T13:33:16.320Z,86.20
2017-11-14T13:35:42.577Z,86.10
2017-11-14T13:38:09.010Z,85.80
2017-11-14T13:40:36.498Z,85.70
2017-11-14T13:43:02.897Z,84.80
2017-11-14T13:45:29.216Z,84.00
2017-11-14T13:47:55.665Z,83.40
2017-11-14T13:50:21.890Z,83.70
2017-11-14T13:52:48.421Z,83.20
2017-11-14T13:55:15.081Z,83.70
2017-11-14T13:57:42.111Z,83.30
2017-11-14T14:00:08.424Z,83.30
2017-11-14T14:02:35.006Z,83.40
2017-11-14T14:05:01.432Z,82.90
2017-11-14T14:07:27.940Z,83.00
2017-11-14T14:09:54.645Z,82.40
2017-11-14T14:12:21.124Z,81.60
2017-11-14T14:14:47.392Z,81.90
2017-11-14T14:17:14.425Z,81.70
2017-11-14T14:19:41.429Z,82.20
2017-11-14T14:22:07.930Z,82.20
2017-11-14T14:24:34.178Z,82.10
2017-11-14T14:27:00.469Z,81.80
2017-11-14T14:29:27.502Z,82.00
2017-11-14T14:31:53.839Z,82.00
2017-11-14T14:34:20.213Z,81.30
2017-11-14T14:36:49.074Z,81.90
2017-11-14T14:39:15.823Z,81.60
2017-11-14T14:41:42.144Z,81.70
2017-11-14T14:44:08.417Z,81.80
2017-11-14T14:46:34.671Z,82.40
2017-11-14T14:49:00.923Z,82.50
2017-11-14T14:51:27.956Z,82.20
2017-11-14T14:53:54.953Z,82.00
2017-11-14T14:56:21.179Z,81.90
2017-11-14T14:58:47.453Z,82.40
2017-11-14T15:01:13.766Z,82.20
2017-11-14T15:03:40.071Z,81.70
2017-11-14T15:06:06.342Z,82.20
2017-11-14T15:08:33.388Z,82.10
2017-11-14T15:10:59.678Z,82.00
2017-11-14T15:13:25.954Z,81.90
2017-11-14T15:15:52.273Z,81.80
2017-11-14T15:18:19.283Z,81.90
2017-11-14T15:20:45.555Z,81.70
2017-11-14T15:23:11.829Z,81.50
2017-11-14T15:25:38.255Z,81.60
2017-11-14T15:28:04.711Z,81.30
2017-11-14T15:30:31.158Z,80.90
2017-11-14T15:33:04.621Z,81.40
2017-11-14T15:35:30.904Z,81.30
2017-11-14T15:37:57.155Z,81.40
2017-11-14T15:40:24.265Z,81.20
2017-11-14T15:42:50.502Z,81.20
2017-11-14T15:45:16.828Z,81.30
2017-11-14T15:47:43.087Z,81.40
2017-11-14T15:50:10.146Z,82.30
2017-11-14T15:52:36.477Z,82.20
2017-11-14T15:55:02.805Z,82.80
2017-11-14T15:57:29.049Z,82.90
2017-11-14T15:59:55.325Z,82.80
2017-11-14T16:02:23.180Z,83.20
2017-11-14T16:04:49.436Z,83.30
2017-11-14T16:07:16.415Z,83.70
2017-11-14T16:09:43.103Z,83.70
2017-11-14T16:12:09.357Z,83.40
2017-11-14T16:14:36.342Z,83.50
2017-11-14T16:17:06.828Z,83.50
2017-11-14T16:19:33.570Z,83.90
2017-11-14T16:22:00.792Z,83.60
2017-11-14T16:24:27.068Z,83.20
2017-11-14T16:26:53.558Z,83.60
2017-11-14T16:29:19.868Z,82.60
2017-11-14T16:31:46.117Z,82.90
2017-11-14T16:34:12.516Z,83.10
2017-11-14T16:36:38.839Z,82.60
2017-11-14T16:39:05.141Z,82.40
2017-11-14T16:41:31.922Z,82.30
2017-11-14T16:43:58.417Z,82.40
2017-11-14T16:46:24.764Z,82.20
2017-11-14T16:48:51.202Z,81.90
2017-11-14T16:51:17.568Z,82.00
2017-11-14T16:53:44.837Z,82.00
2017-11-14T16:56:11.539Z,81.90
2017-11-14T16:58:40.802Z,81.90
2017-11-14T17:03:42.167Z,82.20
2017-11-14T17:06:10.150Z,81.50
2017-11-14T17:08:37.180Z,81.70
2017-11-14T17:11:07.034Z,81.30
2017-11-14T17:13:33.863Z,81.30
2017-11-14T17:16:00.260Z,81.30
2017-11-14T17:18:27.936Z,81.30
2017-11-14T17:20:54.434Z,81.40
2017-11-14T17:23:31.315Z,81.60
2017-11-14T17:25:58.304Z,81.50
2017-11-14T17:28:25.378Z,81.40
2017-11-14T17:30:51.834Z,81.40
2017-11-14T17:33:18.844Z,81.30
2017-11-14T17:35:45.928Z,81.70
2017-11-14T17:38:12.199Z,81.70
2017-11-14T17:40:38.844Z,82.20
2017-11-14T17:43:06.292Z,82.70
2017-11-14T17:45:33.605Z,84.10
2017-11-14T17:48:01.612Z,84.30
2017-11-14T17:50:31.428Z,84.80
2017-11-14T17:52:58.955Z,84.50
2017-11-14T17:55:25.379Z,84.30
2017-11-14T17:57:52.400Z,84.70
2017-11-14T18:00:18.652Z,84.70
2017-11-14T18:02:58.475Z,85.00
2017-11-14T18:05:25.211Z,86.20
2017-11-14T18:07:54.477Z,87.10
2017-11-14T18:10:21.273Z,87.60
2017-11-14T18:12:47.801Z,88.20
2017-11-14T18:15:14.184Z,89.10
2017-11-14T18:17:42.246Z,89.80
2017-11-14T18:20:09.443Z,89.80
2017-11-14T18:22:35.939Z,90.10
2017-11-14T18:25:02.528Z,90.00
2017-11-14T18:27:29.194Z,90.10
2017-11-14T18:29:59.534Z,90.30
2017-11-14T18:32:26.334Z,90.30
2017-11-14T18:34:55.033Z,90.50
2017-11-14T18:37:21.536Z,90.50
2017-11-14T18:39:48.690Z,90.70
2017-11-14T18:42:15.066Z,90.60
2017-11-14T18:44:41.641Z,90.50
2017-11-14T18:47:17.524Z,90.40
2017-11-14T18:49:45.091Z,90.00
2017-11-14T18:52:11.550Z,89.70
2017-11-14T18:54:37.960Z,89.90
2017-11-14T18:57:05.820Z,89.40
2017-11-14T18:59:32.161Z,89.30
2017-11-14T19:01:58.502Z,89.30
2017-11-14T19:04:26.668Z,89.40
2017-11-14T19:06:53.638Z,89.10
2017-11-14T19:09:19.884Z,89.00
2017-11-14T19:11:46.128Z,89.20
2017-11-14T19:14:12.462Z,89.40
2017-11-14T19:16:39.996Z,89.50
2017-11-14T19:19:06.278Z,89.60
2017-11-14T19:21:32.565Z,89.60
2017-11-14T19:23:59.040Z,89.90
2017-11-14T19:26:25.382Z,90.10
2017-11-14T19:28:52.561Z,89.80
2017-11-14T19:31:18.769Z,89.80
2017-11-14T19:33:52.033Z,89.60
2017-11-14T19:36:19.337Z,89.80
2017-11-14T19:38:46.807Z,89.70
2017-11-14T19:41:13.039Z,89.70
2017-11-14T19:43:39.264Z,89.80
2017-11-14T19:46:05.777Z,89.70
2017-11-14T19:48:32.397Z,90.00
2017-11-14T19:50:58.877Z,89.90
2017-11-14T19:53:25.279Z,90.00
2017-11-14T19:55:51.521Z,90.00
2017-11-14T19:58:17.953Z,90.00
2017-11-14T20:00:46.119Z,89.90
2017-11-14T20:03:13.467Z,89.90
2017-11-14T20:05:39.670Z,89.90
2017-11-14T20:08:06.663Z,89.60
2017-11-14T20:10:33.179Z,89.50
2017-11-14T20:12:59.476Z,89.40
2017-11-14T20:15:26.486Z,89.60
2017-11-14T20:17:52.827Z,89.50
2017-11-14T20:20:19.087Z,89.50
2017-11-14T20:22:45.417Z,89.80
2017-11-14T20:25:12.412Z,89.70
2017-11-14T20:27:38.882Z,89.70
2017-11-14T20:30:05.899Z,89.80
2017-11-14T20:32:32.408Z,89.80
2017-11-14T20:34:58.968Z,90.00
2017-11-14T20:37:25.358Z,89.80
2017-11-14T20:39:52.847Z,89.80
2017-11-14T20:42:19.668Z,90.00
2017-11-14T20:44:48.607Z,90.00
2017-11-14T20:49:56.121Z,90.00
2017-11-14T20:52:22.449Z,89.90
2017-11-14T20:54:48.969Z,90.00
2017-11-14T20:57:16.072Z,90.20
2017-11-14T20:59:42.479Z,90.00
2017-11-14T21:02:08.756Z,90.00
2017-11-14T21:04:35.099Z,90.10
2017-11-14T21:07:01.400Z,90.10
2017-11-14T21:09:28.590Z,90.20
2017-11-14T21:11:54.885Z,90.30
2017-11-14T21:14:21.276Z,90.30
2017-11-14T21:16:48.278Z,90.50
2017-11-14T21:19:14.729Z,90.50
2017-11-14T21:21:40.945Z,90.50
2017-11-14T21:24:08.377Z,90.50
2017-11-14T21:26:34.756Z,90.80
2017-11-14T21:29:01.041Z,90.80
2017-11-14T21:31:27.472Z,90.80
2017-11-14T21:33:53.926Z,90.70
2017-11-14T21:36:20.150Z,90.90
2017-11-14T21:38:46.872Z,91.00
2017-11-14T21:41:15.423Z,91.00
2017-11-14T21:43:42.413Z,91.00
2017-11-14T21:46:08.628Z,91.10
2017-11-14T21:48:34.878Z,91.10
2017-11-14T21:51:01.171Z,91.20
2017-11-14T21:53:27.424Z,91.20
2017-11-14T21:55:53.703Z,91.20
2017-11-14T21:58:20.029Z,91.30
2017-11-14T22:00:47.350Z,91.40
2017-11-14T22:03:14.518Z,91.40
2017-11-14T22:05:41.057Z,91.40
2017-11-14T22:08:11.686Z,91.50
2017-11-14T22:10:39.010Z,91.60
2017-11-14T22:13:05.310Z,91.50
2017-11-14T22:15:32.411Z,91.90
2017-11-14T22:17:58.723Z,91.60
2017-11-14T22:20:25.080Z,91.50
2017-11-14T22:22:52.088Z,91.60
2017-11-14T22:25:18.413Z,91.60
2017-11-14T22:27:44.628Z,91.70
2017-11-14T22:30:10.921Z,91.70
2017-11-14T22:32:37.892Z,91.60
2017-11-14T22:35:04.168Z,91.60
2017-11-14T22:37:30.441Z,91.70
2017-11-14T22:40:13.108Z,91.60
2017-11-14T22:42:40.128Z,91.60
2017-11-14T22:45:14.626Z,91.60
2017-11-14T22:47:40.940Z,91.60
2017-11-14T22:50:07.698Z,91.70
2017-11-14T22:52:35.733Z,91.70
2017-11-14T22:55:02.875Z,91.80
2017-11-14T22:57:29.237Z,91.70
2017-11-14T22:59:55.591Z,91.70
2017-11-14T23:02:21.913Z,91.90
2017-11-14T23:04:48.290Z,91.80
2017-11-14T23:07:15.408Z,91.80
2017-11-14T23:09:41.741Z,91.80
2017-11-14T23:12:08.048Z,91.80
2017-11-14T23:14:34.347Z,91.80
2017-11-14T23:17:01.520Z,91.70
2017-11-14T23:19:28.029Z,91.70
2017-11-14T23:21:55.490Z,91.70
2017-11-14T23:24:23.896Z,91.70
2017-11-14T23:26:50.148Z,91.70
2017-11-14T23:29:16.414Z,91.60
2017-11-14T23:31:42.744Z,91.70
2017-11-14T23:34:10.416Z,91.70
2017-11-14T23:36:36.950Z,91.70
2017-11-14T23:39:03.349Z,91.70
2017-11-14T23:41:29.632Z,91.70
2017-11-14T23:43:56.633Z,91.70
2017-11-14T23:46:22.903Z,91.70
2017-11-14T23:48:50.482Z,91.70
2017-11-14T23:51:16.773Z,91.70
2017-11-14T23:53:43.086Z,91.60
2017-11-14T23:56:09.405Z,91.60
2017-11-14T23:58:35.754Z,91.60
